Time;durP1;ratioP1;P1;durP2;ratioP2;P2;SDS_P1;SDS_P2;PMS_P1;PMS_P2;Temp;Humidity;BMP_temperature;BMP_pressure;BME280_temperature;BME280_humidity;BME280_pressure;Samples;Min_cycle;Max_cycle;Signal;HPM_P1;HPM_P2
2021/05/28 00:02:23;;;;;;;10.30;8.50;;;;;;;;;;5013638;28;20496;-96
2021/05/28 00:04:49;;;;;;;14.00;9.83;;;;;;;;;;5017105;28;20456;-96
2021/05/28 00:07:15;;;;;;;11.13;8.77;;;;;;;;;;5013036;28;20452;-96
2021/05/28 00:33:59;;;;;;;9.60;8.50;;;;;;;;;;2971093;23;20492;-96
2021/05/28 01:42:02;;;;;;;8.47;7.20;;;;;;;;;;2429678;23;20464;-96
2021/05/28 01:44:30;;;;;;;18.57;8.17;;;;;;;;;;4997438;28;20498;-96
2021/05/28 01:46:56;;;;;;;9.10;7.27;;;;;;;;;;4997340;28;20468;-96
2021/05/28 01:49:22;;;;;;;9.70;7.37;;;;;;;;;;5000295;28;20454;-96
2021/05/28 01:51:49;;;;;;;10.17;8.10;;;;;;;;;;4989301;28;20468;-96
2021/05/28 01:54:15;;;;;;;9.03;7.43;;;;;;;;;;4992344;28;20449;-96
2021/05/28 01:56:44;;;;;;;9.10;7.27;;;;;;;;;;4986178;28;20514;-95
2021/05/28 01:59:13;;;;;;;8.93;7.20;;;;;;;;;;4995812;28;20526;-95
2021/05/28 02:01:40;;;;;;;8.93;8.03;;;;;;;;;;4976166;28;20465;-95
2021/05/28 02:04:06;;;;;;;11.03;7.47;;;;;;;;;;4990023;28;20464;-96
2021/05/28 02:06:32;;;;;;;11.83;8.70;;;;;;;;;;4985309;28;20450;-96
2021/05/28 02:11:44;;;;;;;14.50;9.90;;;;;;;;;;5316581;23;20487;-96
2021/05/28 02:14:10;;;;;;;10.00;8.33;;;;;;;;;;5026276;28;20486;-96
2021/05/28 02:16:37;;;;;;;14.83;9.57;;;;;;;;;;5037754;28;20456;-96
2021/05/28 02:19:04;;;;;;;14.83;9.80;;;;;;;;;;5040301;28;20511;-96
2021/05/28 02:21:31;;;;;;;16.17;9.00;;;;;;;;;;5046494;28;20448;-96
2021/05/28 02:23:57;;;;;;;10.90;9.33;;;;;;;;;;5032026;28;20470;-96
2021/05/28 02:26:23;;;;;;;9.80;8.67;;;;;;;;;;5030394;28;20451;-96
2021/05/28 02:28:49;;;;;;;14.23;7.63;;;;;;;;;;5022614;28;20456;-95
2021/05/28 02:31:17;;;;;;;11.83;8.70;;;;;;;;;;5031225;28;20447;-96
2021/05/28 02:33:43;;;;;;;15.20;8.50;;;;;;;;;;5020874;28;20503;-96
2021/05/28 02:36:10;;;;;;;11.03;8.57;;;;;;;;;;5023647;28;20448;-96
2021/05/28 02:38:37;;;;;;;10.90;8.57;;;;;;;;;;5020079;28;20456;-96
2021/05/28 02:41:03;;;;;;;10.30;8.73;;;;;;;;;;5038021;28;20455;-95
2021/05/28 02:43:29;;;;;;;10.20;8.97;;;;;;;;;;5024319;28;20460;-96
2021/05/28 02:45:56;;;;;;;12.40;9.53;;;;;;;;;;5025188;28;20455;-95
2021/05/28 02:48:22;;;;;;;16.67;9.17;;;;;;;;;;5030807;28;20829;-96
2021/05/28 02:50:48;;;;;;;11.33;8.37;;;;;;;;;;5040360;28;20470;-96
2021/05/28 02:53:16;;;;;;;17.20;8.30;;;;;;;;;;5003540;28;20514;-96
2021/05/28 02:55:42;;;;;;;9.63;8.30;;;;;;;;;;5023581;28;20475;-96
2021/05/28 02:58:09;;;;;;;14.43;8.70;;;;;;;;;;5032170;28;20498;-96
2021/05/28 03:00:35;;;;;;;13.83;9.20;;;;;;;;;;5023581;28;20451;-96
2021/05/28 03:03:01;;;;;;;10.87;7.73;;;;;;;;;;5033510;28;20447;-96
2021/05/28 03:05:27;;;;;;;8.93;7.07;;;;;;;;;;5024115;28;20846;-96
2021/05/28 03:07:53;;;;;;;9.43;7.20;;;;;;;;;;5018943;28;20459;-96
2021/05/28 03:10:21;;;;;;;7.80;6.30;;;;;;;;;;5041224;28;20494;-96
2021/05/28 03:12:47;;;;;;;8.50;7.30;;;;;;;;;;5035999;28;20493;-96
2021/05/28 03:15:14;;;;;;;10.73;7.83;;;;;;;;;;5026461;28;20484;-96
2021/05/28 03:17:43;;;;;;;11.60;9.27;;;;;;;;;;5041497;28;21230;-96
2021/05/28 03:20:17;;;;;;;13.90;10.20;;;;;;;;;;5040744;28;20480;-96
2021/05/28 03:22:46;;;;;;;11.30;9.93;;;;;;;;;;5024264;28;20459;-96
2021/05/28 03:25:13;;;;;;;14.97;10.47;;;;;;;;;;5010695;28;20451;-96
2021/05/28 03:27:50;;;;;;;13.17;10.07;;;;;;;;;;5030567;28;20439;-96
2021/05/28 03:32:59;;;;;;;12.20;9.23;;;;;;;;;;5054137;28;20552;-96
2021/05/28 03:35:25;;;;;;;14.53;9.90;;;;;;;;;;5038173;28;20470;-96
2021/05/28 03:37:51;;;;;;;13.80;9.47;;;;;;;;;;5041785;28;20597;-96
2021/05/28 03:40:17;;;;;;;12.30;9.93;;;;;;;;;;5029565;28;20464;-96
2021/05/28 03:42:44;;;;;;;22.20;11.17;;;;;;;;;;5042664;28;20463;-96
2021/05/28 03:45:12;;;;;;;19.30;9.40;;;;;;;;;;5036034;28;20452;-96
2021/05/28 03:47:39;;;;;;;14.20;10.97;;;;;;;;;;5031342;28;20452;-96
2021/05/28 03:50:08;;;;;;;14.23;10.77;;;;;;;;;;5049860;28;20455;-96
2021/05/28 03:52:34;;;;;;;21.33;11.83;;;;;;;;;;5034753;28;20486;-96
2021/05/28 03:55:01;;;;;;;24.23;13.53;;;;;;;;;;5022284;28;20461;-96
2021/05/28 03:57:27;;;;;;;17.27;11.83;;;;;;;;;;5034462;28;20455;-96
2021/05/28 03:59:53;;;;;;;14.90;10.40;;;;;;;;;;5039371;28;20463;-96
2021/05/28 04:05:10;;;;;;;18.97;7.37;;;;;;;;;;5494830;23;20484;-96
2021/05/28 04:07:36;;;;;;;7.63;6.47;;;;;;;;;;5027196;23;20496;-96
2021/05/28 04:10:06;;;;;;;9.20;6.90;;;;;;;;;;5024408;28;20451;-96
2021/05/28 04:12:33;;;;;;;7.87;6.97;;;;;;;;;;5020318;28;20558;-96
2021/05/28 04:15:00;;;;;;;7.83;7.03;;;;;;;;;;5003415;28;20474;-96
2021/05/28 04:17:26;;;;;;;8.97;7.40;;;;;;;;;;5024498;28;20464;-96
2021/05/28 04:19:52;;;;;;;13.23;6.63;;;;;;;;;;5018837;28;20457;-96
2021/05/28 04:22:19;;;;;;;11.20;7.17;;;;;;;;;;5012586;28;20492;-95
2021/05/28 04:24:45;;;;;;;6.83;6.13;;;;;;;;;;5026268;28;20447;-96
2021/05/28 04:27:12;;;;;;;6.90;6.20;;;;;;;;;;5014867;28;21074;-96
2021/05/28 04:29:38;;;;;;;7.60;6.67;;;;;;;;;;5013919;28;20452;-96
2021/05/28 04:32:05;;;;;;;7.77;6.80;;;;;;;;;;5017034;28;20467;-96
2021/05/28 04:34:31;;;;;;;6.80;6.10;;;;;;;;;;5014790;28;21140;-96
2021/05/28 04:36:57;;;;;;;7.17;6.43;;;;;;;;;;5022557;28;20456;-96
2021/05/28 04:39:26;;;;;;;9.40;6.63;;;;;;;;;;5014872;28;20491;-96
2021/05/28 04:49:45;;;;;;;10.00;6.23;;;;;;;;;;5000562;28;20484;-96
2021/05/28 04:52:13;;;;;;;10.03;7.00;;;;;;;;;;5089732;23;20476;-96
2021/05/28 04:54:40;;;;;;;9.53;7.60;;;;;;;;;;5015400;28;20433;-95
2021/05/28 04:57:13;;;;;;;11.20;6.97;;;;;;;;;;5025465;28;20486;-96
2021/05/28 04:59:41;;;;;;;13.27;6.90;;;;;;;;;;4968359;28;20477;-96
2021/05/28 05:02:08;;;;;;;7.07;6.10;;;;;;;;;;5018250;28;20448;-95
2021/05/28 06:48:34;;;;;;;13.30;12.10;;;;;;;;;;5683131;23;20499;-96
2021/05/28 06:51:00;;;;;;;15.63;12.13;;;;;;;;;;5130457;23;20496;-96
2021/05/28 06:56:45;;;;;;;13.20;10.60;;;;;;;;;;5225095;23;20503;-96
2021/05/28 07:07:36;;;;;;;11.97;10.60;;;;;;;;;;5839488;23;20479;-96
2021/05/28 07:15:45;;;;;;;13.60;11.90;;;;;;;;;;5091208;23;20496;-96
2021/05/28 07:20:53;;;;;;;13.10;11.80;;;;;;;;;;5894162;23;20492;-96
2021/05/28 07:23:22;;;;;;;14.53;11.63;;;;;;;;;;5025419;28;20444;-96
2021/05/28 07:25:49;;;;;;;12.60;11.30;;;;;;;;;;5009270;28;20429;-96
2021/05/28 07:28:15;;;;;;;15.63;12.83;;;;;;;;;;5010818;28;20450;-96
2021/05/28 07:30:53;;;;;;;13.80;11.83;;;;;;;;;;5031701;28;20458;-96
2021/05/28 07:33:22;;;;;;;13.97;12.40;;;;;;;;;;5017400;28;20577;-96
2021/05/28 07:35:49;;;;;;;14.73;11.70;;;;;;;;;;5060348;23;20501;-96
2021/05/28 07:38:17;;;;;;;12.50;11.33;;;;;;;;;;5012191;28;20465;-96
2021/05/28 07:40:43;;;;;;;13.60;12.17;;;;;;;;;;5009950;28;20447;-95
2021/05/28 07:43:10;;;;;;;12.53;10.73;;;;;;;;;;5005876;28;20459;-94
2021/05/28 07:45:37;;;;;;;15.57;11.73;;;;;;;;;;5004161;28;20451;-95
2021/05/28 07:48:03;;;;;;;15.57;12.10;;;;;;;;;;5008188;28;20490;-95
2021/05/28 07:50:44;;;;;;;15.67;12.20;;;;;;;;;;5037816;23;20480;-96
2021/05/28 07:53:11;;;;;;;14.23;12.57;;;;;;;;;;5112545;23;20507;-95
2021/05/28 07:55:38;;;;;;;13.70;12.30;;;;;;;;;;5009588;28;20547;-95
2021/05/28 07:58:04;;;;;;;13.17;11.87;;;;;;;;;;5004775;28;20455;-96
2021/05/28 08:00:31;;;;;;;15.47;12.47;;;;;;;;;;5022538;23;20577;-95
2021/05/28 08:02:57;;;;;;;16.30;11.80;;;;;;;;;;4997720;28;20525;-96
2021/05/28 08:05:25;;;;;;;12.20;11.00;;;;;;;;;;5003928;28;20544;-94
2021/05/28 08:07:51;;;;;;;14.60;11.47;;;;;;;;;;5004107;28;20543;-93
2021/05/28 08:10:17;;;;;;;13.43;11.23;;;;;;;;;;5007322;28;20463;-93
2021/05/28 08:12:44;;;;;;;15.53;11.10;;;;;;;;;;5003132;28;20494;-94
2021/05/28 08:15:10;;;;;;;15.43;10.87;;;;;;;;;;5001992;28;20503;-92
2021/05/28 08:20:12;;;;;;;11.67;9.77;;;;;;;;;;5064387;23;20505;-95
2021/05/28 08:25:13;;;;;;;10.97;9.87;;;;;;;;;;4924771;26;20481;-94
2021/05/28 08:27:41;;;;;;;10.53;9.53;;;;;;;;;;5032621;28;20435;-95
2021/05/28 08:30:16;;;;;;;9.57;8.57;;;;;;;;;;5020371;28;21115;-94
2021/05/28 08:32:43;;;;;;;10.10;9.17;;;;;;;;;;5001045;28;20476;-94
2021/05/28 08:35:11;;;;;;;10.57;8.77;;;;;;;;;;5002181;28;20471;-95
2021/05/28 08:37:37;;;;;;;10.67;9.50;;;;;;;;;;5012643;28;20544;-93
2021/05/28 08:42:39;;;;;;;11.60;9.10;;;;;;;;;;4288870;23;21031;-93
2021/05/28 08:45:07;;;;;;;12.03;8.80;;;;;;;;;;5010329;28;20452;-95
2021/05/28 08:47:35;;;;;;;9.60;7.90;;;;;;;;;;5017712;28;20932;-94
2021/05/28 08:50:06;;;;;;;11.80;8.70;;;;;;;;;;5011167;28;20911;-95
2021/05/28 08:52:34;;;;;;;17.67;8.13;;;;;;;;;;5003341;28;20472;-95
2021/05/28 08:55:00;;;;;;;13.70;4.13;;;;;;;;;;5006258;28;20503;-93
2021/05/28 08:57:26;;;;;;;13.80;3.30;;;;;;;;;;5005474;28;20447;-94
2021/05/28 08:59:56;;;;;;;4.77;3.20;;;;;;;;;;5005545;28;20459;-93
2021/05/28 09:02:30;;;;;;;5.33;3.13;;;;;;;;;;5018569;28;20449;-94
2021/05/28 09:05:13;;;;;;;10.70;2.67;;;;;;;;;;5023169;28;20479;-96
2021/05/28 09:07:42;;;;;;;3.23;2.87;;;;;;;;;;5006861;28;20463;-95
2021/05/28 09:10:26;;;;;;;2.73;2.50;;;;;;;;;;5018770;28;20471;-95
2021/05/28 09:12:53;;;;;;;8.10;2.70;;;;;;;;;;5010631;28;20995;-93
2021/05/28 09:15:20;;;;;;;3.93;2.90;;;;;;;;;;5021058;28;20447;-94
2021/05/28 09:17:47;;;;;;;2.60;2.40;;;;;;;;;;5014529;28;20445;-94
2021/05/28 09:20:14;;;;;;;4.60;3.00;;;;;;;;;;5005423;28;20448;-91
2021/05/28 09:22:40;;;;;;;4.53;3.73;;;;;;;;;;5002562;28;20460;-94
2021/05/28 09:25:06;;;;;;;3.97;3.57;;;;;;;;;;5023991;28;20444;-94
2021/05/28 09:27:36;;;;;;;4.40;3.40;;;;;;;;;;5014910;28;20460;-94
2021/05/28 09:30:05;;;;;;;2.97;2.67;;;;;;;;;;5014378;28;20484;-92
2021/05/28 09:32:31;;;;;;;4.50;2.70;;;;;;;;;;5006479;28;20455;-93
2021/05/28 09:34:58;;;;;;;4.03;3.10;;;;;;;;;;5010161;28;20476;-92
2021/05/28 09:37:35;;;;;;;4.20;2.63;;;;;;;;;;5009080;28;20464;-93
2021/05/28 09:40:06;;;;;;;5.00;2.30;;;;;;;;;;5014492;28;20445;-94
2021/05/28 09:42:45;;;;;;;2.07;1.87;;;;;;;;;;5007433;28;20473;-93
2021/05/28 09:45:22;;;;;;;1.93;1.60;;;;;;;;;;4999599;28;20449;-95
2021/05/28 09:47:48;;;;;;;1.80;1.70;;;;;;;;;;5018188;28;20483;-92
2021/05/28 09:50:15;;;;;;;2.33;1.63;;;;;;;;;;5014459;28;20436;-93
2021/05/28 09:52:42;;;;;;;2.37;1.70;;;;;;;;;;4993816;28;20514;-92
2021/05/28 09:55:09;;;;;;;2.37;1.93;;;;;;;;;;5022501;28;20440;-92
2021/05/28 09:57:37;;;;;;;2.60;2.40;;;;;;;;;;5008460;28;20465;-95
2021/05/28 10:00:05;;;;;;;3.67;1.70;;;;;;;;;;5022906;28;20448;-94
2021/05/28 10:02:33;;;;;;;3.60;1.70;;;;;;;;;;5013656;28;20499;-92
2021/05/28 10:05:00;;;;;;;3.07;2.03;;;;;;;;;;5011617;28;20467;-94
2021/05/28 10:07:31;;;;;;;1.77;1.67;;;;;;;;;;5000779;28;20501;-95
2021/05/28 10:09:59;;;;;;;3.63;2.10;;;;;;;;;;5012166;28;20490;-94
2021/05/28 10:12:25;;;;;;;4.33;2.30;;;;;;;;;;5007325;28;20484;-94
2021/05/28 10:14:52;;;;;;;5.67;2.10;;;;;;;;;;4993997;28;20460;-92
2021/05/28 10:17:18;;;;;;;1.93;1.83;;;;;;;;;;5011136;28;20475;-94
2021/05/28 10:19:46;;;;;;;2.30;2.10;;;;;;;;;;5014643;28;20479;-94
2021/05/28 10:22:23;;;;;;;2.67;2.47;;;;;;;;;;5002037;28;20448;-96
2021/05/28 10:24:49;;;;;;;3.50;3.07;;;;;;;;;;5003954;28;20457;-92
2021/05/28 10:27:23;;;;;;;2.97;2.50;;;;;;;;;;5010347;28;20455;-94
2021/05/28 10:29:50;;;;;;;3.20;2.70;;;;;;;;;;5007884;28;20484;-95
2021/05/28 10:32:16;;;;;;;2.63;2.10;;;;;;;;;;5013162;28;20460;-93
2021/05/28 10:35:03;;;;;;;2.27;2.07;;;;;;;;;;5007095;28;20488;-96
2021/05/28 10:37:29;;;;;;;3.83;2.60;;;;;;;;;;5008276;28;20461;-96
2021/05/28 10:39:55;;;;;;;3.27;1.97;;;;;;;;;;5010335;28;20479;-96
2021/05/28 10:42:21;;;;;;;2.47;2.00;;;;;;;;;;5007164;28;20515;-96
2021/05/28 10:44:48;;;;;;;2.30;2.10;;;;;;;;;;5013820;28;20963;-96
2021/05/28 10:47:23;;;;;;;3.63;2.10;;;;;;;;;;5005651;28;20453;-95
2021/05/28 10:49:51;;;;;;;4.17;2.57;;;;;;;;;;5009839;28;20455;-96
2021/05/28 10:52:27;;;;;;;2.53;2.33;;;;;;;;;;4995868;28;20871;-95
2021/05/28 10:54:57;;;;;;;4.30;2.47;;;;;;;;;;5000460;28;20555;-96
2021/05/28 10:57:33;;;;;;;3.00;2.40;;;;;;;;;;5004030;28;20463;-95
2021/05/28 11:00:01;;;;;;;3.90;2.60;;;;;;;;;;5007150;28;20456;-95
2021/05/28 11:02:47;;;;;;;2.90;2.43;;;;;;;;;;5015775;28;20455;-94
2021/05/28 11:05:13;;;;;;;5.50;3.40;;;;;;;;;;5019395;28;20455;-96
2021/05/28 11:07:42;;;;;;;2.97;2.67;;;;;;;;;;5011663;28;20433;-95
2021/05/28 11:10:24;;;;;;;4.67;2.70;;;;;;;;;;5022245;28;20459;-95
2021/05/28 11:12:50;;;;;;;2.70;2.50;;;;;;;;;;5003906;28;21043;-93
2021/05/28 11:18:17;;;;;;;2.17;1.90;;;;;;;;;;5014902;28;20443;-96
2021/05/28 11:20:43;;;;;;;1.90;1.70;;;;;;;;;;4988551;28;20501;-95
2021/05/28 11:23:14;;;;;;;2.50;2.40;;;;;;;;;;5002127;28;20445;-93
2021/05/28 11:25:45;;;;;;;2.17;1.97;;;;;;;;;;4994276;28;20461;-92
2021/05/28 11:28:12;;;;;;;2.20;2.00;;;;;;;;;;4996168;28;20464;-90
2021/05/28 11:30:40;;;;;;;3.07;1.90;;;;;;;;;;5001598;28;20464;-93
2021/05/28 11:33:06;;;;;;;2.07;1.90;;;;;;;;;;5018889;28;20495;-93
2021/05/28 11:35:38;;;;;;;3.57;1.90;;;;;;;;;;5000989;28;20479;-93
2021/05/28 11:38:05;;;;;;;3.53;1.90;;;;;;;;;;5005046;28;20484;-94
2021/05/28 11:40:37;;;;;;;3.67;1.83;;;;;;;;;;5006850;28;20477;-95
2021/05/28 11:43:04;;;;;;;14.83;1.70;;;;;;;;;;5017643;28;20492;-93
2021/05/28 11:45:30;;;;;;;1.87;1.77;;;;;;;;;;5017391;28;20491;-94
2021/05/28 11:47:57;;;;;;;1.70;1.60;;;;;;;;;;5015752;28;20456;-94
2021/05/28 11:50:23;;;;;;;1.57;1.33;;;;;;;;;;5023432;28;20454;-95
2021/05/28 11:52:56;;;;;;;1.80;1.70;;;;;;;;;;5007982;28;20456;-96
2021/05/28 11:55:24;;;;;;;2.50;2.20;;;;;;;;;;5012245;28;20464;-95
2021/05/28 11:57:59;;;;;;;2.33;2.13;;;;;;;;;;5018801;28;20450;-96
2021/05/28 12:00:27;;;;;;;3.10;2.10;;;;;;;;;;5007989;28;20457;-96
2021/05/28 12:02:56;;;;;;;3.30;2.57;;;;;;;;;;5006291;28;20468;-94
2021/05/28 12:05:30;;;;;;;4.23;2.60;;;;;;;;;;5012940;28;20817;-96
2021/05/28 12:08:08;;;;;;;2.60;2.33;;;;;;;;;;5005277;28;21245;-96
2021/05/28 12:10:47;;;;;;;2.70;2.00;;;;;;;;;;5027786;23;20565;-93
2021/05/28 12:13:17;;;;;;;3.47;2.20;;;;;;;;;;5004352;28;20474;-95
2021/05/28 12:21:09;;;;;;;2.40;2.30;;;;;;;;;;5010412;28;20464;-96
2021/05/28 12:26:35;;;;;;;5.10;3.27;;;;;;;;;;4993271;28;20461;-96
2021/05/28 12:31:59;;;;;;;4.00;3.60;;;;;;;;;;4547310;26;20480;-95
2021/05/28 12:34:28;;;;;;;4.57;3.30;;;;;;;;;;5005186;28;20491;-96
2021/05/28 12:37:04;;;;;;;4.23;3.33;;;;;;;;;;5014620;28;20456;-96
2021/05/28 12:39:30;;;;;;;3.27;2.63;;;;;;;;;;5007070;28;20470;-96
2021/05/28 12:44:42;;;;;;;3.53;2.80;;;;;;;;;;2674606;26;20547;-96
2021/05/28 12:50:03;;;;;;;3.77;2.90;;;;;;;;;;5014370;28;20444;-96
2021/05/28 12:52:34;;;;;;;3.63;3.30;;;;;;;;;;5014455;28;20492;-95
2021/05/28 12:55:01;;;;;;;3.43;3.13;;;;;;;;;;5008201;28;20496;-95
2021/05/28 13:03:55;;;;;;;4.97;4.67;;;;;;;;;;5017039;23;20512;-96
2021/05/28 13:06:31;;;;;;;5.53;5.13;;;;;;;;;;4963720;28;20496;-93
2021/05/28 13:09:05;;;;;;;6.07;5.40;;;;;;;;;;4996909;28;20444;-96
2021/05/28 13:12:12;;;;;;;6.30;5.70;;;;;;;;;;4999660;28;20548;-96
2021/05/28 13:17:23;;;;;;;7.20;6.50;;;;;;;;;;5124004;23;20488;-96
2021/05/28 13:19:50;;;;;;;7.90;7.10;;;;;;;;;;5028577;28;20449;-95
2021/05/28 13:22:46;;;;;;;13.93;6.10;;;;;;;;;;5049635;28;20448;-93
2021/05/28 13:25:21;;;;;;;7.03;6.33;;;;;;;;;;5026216;28;20457;-95
2021/05/28 13:30:45;;;;;;;;;;;;;;;;;;;;;
2021/05/28 13:33:32;;;;;;;8.57;7.30;;;;;;;;;;5019523;28;21112;-96
2021/05/28 13:36:03;;;;;;;6.97;6.37;;;;;;;;;;5014822;28;20454;-96
2021/05/28 13:38:51;;;;;;;7.00;6.40;;;;;;;;;;5038671;28;20440;-94
2021/05/28 13:41:35;;;;;;;7.70;7.03;;;;;;;;;;4964631;28;20472;-96
2021/05/28 13:47:19;;;;;;;7.13;6.53;;;;;;;;;;5006263;23;20493;-95
2021/05/28 13:49:54;;;;;;;8.20;7.40;;;;;;;;;;5010126;28;20559;-96
2021/05/28 13:55:11;;;;;;;7.33;6.63;;;;;;;;;;4987403;28;20448;-96
2021/05/28 13:58:10;;;;;;;8.53;7.77;;;;;;;;;;5020070;28;20445;-96
2021/05/28 14:00:40;;;;;;;8.70;7.80;;;;;;;;;;5016164;28;20423;-95
2021/05/28 14:03:19;;;;;;;9.50;7.50;;;;;;;;;;5015306;28;20438;-96
2021/05/28 14:11:28;;;;;;;9.20;8.30;;;;;;;;;;5020299;28;20542;-96
2021/05/28 14:13:58;;;;;;;8.10;7.40;;;;;;;;;;5074859;23;20588;-96
2021/05/28 14:24:48;;;;;;;8.20;7.40;;;;;;;;;;5008023;23;20494;-96
2021/05/28 14:27:17;;;;;;;10.93;8.70;;;;;;;;;;5041285;28;20448;-96
2021/05/28 14:30:15;;;;;;;9.53;8.53;;;;;;;;;;5061841;23;20485;-96
2021/05/28 14:35:38;;;;;;;9.00;8.10;;;;;;;;;;4983646;28;20493;-96
2021/05/28 14:38:06;;;;;;;8.60;7.80;;;;;;;;;;5086084;23;20503;-96
2021/05/28 14:40:36;;;;;;;9.20;8.33;;;;;;;;;;5016717;28;20438;-95
2021/05/28 14:43:07;;;;;;;9.30;8.40;;;;;;;;;;5030009;28;20448;-94
2021/05/28 14:48:15;;;;;;;9.83;8.90;;;;;;;;;;5038227;28;20458;-96
2021/05/28 14:50:46;;;;;;;9.40;8.50;;;;;;;;;;5016557;23;20489;-94
2021/05/28 14:56:04;;;;;;;9.17;8.37;;;;;;;;;;5006949;28;20496;-96
2021/05/28 14:58:38;;;;;;;9.23;8.20;;;;;;;;;;5003504;28;20449;-94
2021/05/28 15:01:07;;;;;;;9.00;8.20;;;;;;;;;;5011033;28;20539;-96
2021/05/28 15:06:18;;;;;;;9.47;8.57;;;;;;;;;;5009139;28;20457;-96
2021/05/28 15:08:56;;;;;;;10.03;9.13;;;;;;;;;;5024051;28;20464;-96
2021/05/28 15:11:28;;;;;;;11.73;9.70;;;;;;;;;;5033271;23;20439;-95
2021/05/28 15:16:44;;;;;;;9.77;8.87;;;;;;;;;;4966624;28;20459;-96
2021/05/28 15:19:14;;;;;;;9.60;8.60;;;;;;;;;;4987134;28;20552;-96
2021/05/28 15:21:40;;;;;;;11.00;8.97;;;;;;;;;;4980132;28;20455;-95
2021/05/28 15:24:11;;;;;;;10.57;9.57;;;;;;;;;;4984500;28;20462;-96
2021/05/28 15:26:50;;;;;;;9.30;8.40;;;;;;;;;;4959011;29;20533;-95
2021/05/28 15:29:19;;;;;;;10.73;9.73;;;;;;;;;;4992523;28;20430;-95
2021/05/28 15:31:49;;;;;;;12.53;9.57;;;;;;;;;;4979311;28;20446;-96
2021/05/28 15:34:15;;;;;;;9.60;8.60;;;;;;;;;;4990390;28;20486;-96
2021/05/28 15:36:41;;;;;;;12.63;8.63;;;;;;;;;;5034961;23;20500;-96
2021/05/28 15:41:52;;;;;;;9.43;8.57;;;;;;;;;;5020012;28;20455;-96
2021/05/28 15:47:15;;;;;;;9.53;8.63;;;;;;;;;;5036557;28;20509;-96
2021/05/28 15:49:41;;;;;;;9.40;8.50;;;;;;;;;;5049274;28;20431;-91
2021/05/28 15:52:08;;;;;;;8.53;7.83;;;;;;;;;;5027273;28;20462;-94
2021/05/28 15:54:34;;;;;;;9.70;8.20;;;;;;;;;;5034033;28;20489;-96
2021/05/28 15:57:06;;;;;;;9.20;8.43;;;;;;;;;;5025029;23;20503;-96
2021/05/28 15:59:32;;;;;;;8.80;8.00;;;;;;;;;;5023833;28;20439;-95
2021/05/28 16:02:11;;;;;;;10.43;9.33;;;;;;;;;;5019868;28;20443;-96
2021/05/28 16:04:38;;;;;;;8.70;7.27;;;;;;;;;;5011705;28;20466;-95
2021/05/28 16:07:14;;;;;;;9.23;8.30;;;;;;;;;;5012402;28;20456;-96
2021/05/28 16:09:42;;;;;;;9.30;8.50;;;;;;;;;;5010371;28;20464;-96
2021/05/28 16:12:16;;;;;;;8.83;8.07;;;;;;;;;;5008570;28;20478;-95
2021/05/28 16:14:43;;;;;;;9.70;8.90;;;;;;;;;;5019483;28;20482;-95
2021/05/28 16:17:23;;;;;;;9.10;8.40;;;;;;;;;;5018741;23;20773;-93
2021/05/28 16:19:50;;;;;;;8.37;7.50;;;;;;;;;;5005359;28;20486;-94
2021/05/28 16:24:54;;;;;;;9.27;8.27;;;;;;;;;;5117855;23;21505;-94
2021/05/28 16:27:23;;;;;;;8.87;7.80;;;;;;;;;;5023096;28;20455;-96
2021/05/28 16:29:50;;;;;;;9.40;8.60;;;;;;;;;;5015335;28;20476;-96
2021/05/28 16:32:19;;;;;;;8.63;7.73;;;;;;;;;;5018356;28;20481;-93
2021/05/28 16:34:58;;;;;;;9.30;8.50;;;;;;;;;;5032958;28;20500;-95
2021/05/28 16:37:25;;;;;;;11.40;9.07;;;;;;;;;;5023162;28;20692;-94
2021/05/28 16:40:04;;;;;;;15.77;10.00;;;;;;;;;;5027555;28;20483;-96
2021/05/28 16:42:37;;;;;;;10.53;9.17;;;;;;;;;;5012536;28;20484;-96
2021/05/28 16:45:08;;;;;;;9.43;8.53;;;;;;;;;;5018560;28;20476;-96
2021/05/28 16:55:41;;;;;;;10.20;9.07;;;;;;;;;;5106926;23;20476;-96
2021/05/28 17:03:46;;;;;;;9.10;8.30;;;;;;;;;;5016778;28;20461;-96
2021/05/28 17:06:12;;;;;;;9.80;8.90;;;;;;;;;;5013084;28;20460;-96
2021/05/28 17:08:55;;;;;;;7.90;7.30;;;;;;;;;;5013641;28;20463;-95
2021/05/28 17:11:25;;;;;;;9.30;8.30;;;;;;;;;;5018283;28;20461;-96
2021/05/28 17:14:00;;;;;;;9.40;7.80;;;;;;;;;;5030029;28;20492;-94
2021/05/28 17:16:29;;;;;;;9.00;7.33;;;;;;;;;;5020763;28;20466;-95
2021/05/28 17:18:58;;;;;;;8.20;7.40;;;;;;;;;;5025254;28;20444;-95
2021/05/28 17:21:30;;;;;;;8.60;7.80;;;;;;;;;;5012925;28;20473;-95
2021/05/28 17:23:57;;;;;;;9.10;8.30;;;;;;;;;;5010982;28;20460;-94
2021/05/28 17:26:28;;;;;;;8.20;7.40;;;;;;;;;;5012739;28;20448;-93
2021/05/28 17:28:55;;;;;;;9.10;8.20;;;;;;;;;;5000055;28;20452;-94
2021/05/28 17:31:21;;;;;;;8.97;8.07;;;;;;;;;;5011552;28;20446;-93
2021/05/28 17:33:47;;;;;;;9.00;8.20;;;;;;;;;;4992399;28;20490;-93
2021/05/28 17:36:29;;;;;;;8.73;7.83;;;;;;;;;;5008534;28;20457;-95
2021/05/28 17:38:56;;;;;;;12.40;9.07;;;;;;;;;;5002122;28;20464;-96
2021/05/28 17:41:39;;;;;;;10.10;8.30;;;;;;;;;;5014771;28;20450;-96
2021/05/28 17:44:06;;;;;;;9.27;8.37;;;;;;;;;;5023681;28;20464;-96
2021/05/28 17:46:44;;;;;;;9.10;8.27;;;;;;;;;;5030284;28;20442;-96
2021/05/28 17:57:39;;;;;;;12.50;9.63;;;;;;;;;;5213995;23;20555;-96
2021/05/28 18:00:21;;;;;;;9.97;9.00;;;;;;;;;;5031660;28;20971;-96
2021/05/28 18:02:47;;;;;;;10.67;8.70;;;;;;;;;;5039620;23;20513;-95
2021/05/28 18:05:13;;;;;;;10.17;9.17;;;;;;;;;;4997740;28;20456;-96
2021/05/28 18:10:24;;;;;;;8.90;8.10;;;;;;;;;;5435229;23;20526;-96
2021/05/28 18:15:30;;;;;;;9.70;8.80;;;;;;;;;;5012158;23;20556;-96
2021/05/28 18:18:12;;;;;;;9.17;8.27;;;;;;;;;;4993254;28;20425;-96
2021/05/28 18:20:49;;;;;;;10.00;8.87;;;;;;;;;;4986879;28;20467;-95
2021/05/28 18:23:21;;;;;;;10.67;9.70;;;;;;;;;;4988311;28;20410;-96
2021/05/28 18:26:07;;;;;;;9.87;8.87;;;;;;;;;;4988459;28;20509;-96
2021/05/28 18:31:38;;;;;;;9.77;8.67;;;;;;;;;;5079361;23;20523;-96
2021/05/28 18:34:07;;;;;;;11.70;8.77;;;;;;;;;;5021438;23;20481;-96
2021/05/28 18:39:36;;;;;;;9.73;8.73;;;;;;;;;;4989115;28;20460;-96
2021/05/28 18:42:26;;;;;;;9.47;8.57;;;;;;;;;;4986903;28;20434;-96
2021/05/28 18:45:01;;;;;;;9.37;8.47;;;;;;;;;;4991289;28;21147;-96
2021/05/28 18:47:31;;;;;;;9.43;8.50;;;;;;;;;;5127459;23;20440;-96
2021/05/28 18:49:58;;;;;;;10.67;8.67;;;;;;;;;;5021742;28;20439;-94
2021/05/28 18:52:36;;;;;;;10.80;9.70;;;;;;;;;;5021572;28;20526;-96
2021/05/28 18:55:05;;;;;;;9.77;8.87;;;;;;;;;;5020880;28;20566;-96
2021/05/28 18:57:32;;;;;;;10.03;9.10;;;;;;;;;;5030450;28;20456;-93
2021/05/28 18:59:58;;;;;;;10.97;8.60;;;;;;;;;;5013250;28;20447;-92
2021/05/28 19:02:25;;;;;;;10.73;9.10;;;;;;;;;;5019780;28;20475;-94
2021/05/28 19:04:53;;;;;;;9.97;9.00;;;;;;;;;;5025362;28;20530;-96
2021/05/28 19:07:23;;;;;;;10.50;9.30;;;;;;;;;;5016064;28;20464;-94
2021/05/28 19:09:49;;;;;;;11.57;9.60;;;;;;;;;;5020805;28;20468;-91
2021/05/28 19:12:15;;;;;;;10.10;8.60;;;;;;;;;;5008058;28;20828;-91
2021/05/28 19:14:41;;;;;;;11.27;9.67;;;;;;;;;;5010472;28;20495;-92
2021/05/28 19:17:08;;;;;;;9.77;8.80;;;;;;;;;;5012415;28;20452;-92
2021/05/28 19:19:38;;;;;;;11.00;9.77;;;;;;;;;;5008258;28;20456;-94
2021/05/28 19:22:05;;;;;;;10.37;9.30;;;;;;;;;;5014112;28;20515;-94
2021/05/28 19:24:32;;;;;;;10.17;9.17;;;;;;;;;;5012590;28;20428;-90
2021/05/28 19:26:58;;;;;;;11.13;9.93;;;;;;;;;;5017521;28;20452;-91
2021/05/28 19:29:24;;;;;;;10.67;9.50;;;;;;;;;;5020787;28;20455;-91
2021/05/28 19:31:50;;;;;;;10.43;9.33;;;;;;;;;;5010446;28;20461;-90
2021/05/28 19:34:16;;;;;;;10.43;9.50;;;;;;;;;;4996020;28;20546;-94
2021/05/28 19:36:42;;;;;;;9.23;8.33;;;;;;;;;;5006182;28;20456;-93
2021/05/28 19:39:09;;;;;;;10.80;9.67;;;;;;;;;;5006404;28;20443;-95
2021/05/28 19:41:36;;;;;;;9.40;8.50;;;;;;;;;;5005098;28;20527;-90
2021/05/28 19:44:03;;;;;;;12.27;9.20;;;;;;;;;;4997988;28;20463;-93
2021/05/28 19:46:31;;;;;;;11.27;10.10;;;;;;;;;;5005380;28;20520;-94
2021/05/28 19:48:58;;;;;;;11.03;9.93;;;;;;;;;;4995942;28;20478;-90
2021/05/28 19:51:30;;;;;;;10.10;9.10;;;;;;;;;;5017069;28;20478;-94
2021/05/28 19:55:41;;;;;;;11.93;10.17;;;;;;;;;;5010028;28;20491;-91
2021/05/28 19:56:49;;;;;;;14.13;9.97;;;;;;;;;;4999446;28;20445;-92
2021/05/28 19:59:15;;;;;;;12.07;10.10;;;;;;;;;;4996219;28;20460;-92
2021/05/28 20:01:41;;;;;;;12.43;11.13;;;;;;;;;;5000306;28;20449;-91
2021/05/28 20:04:07;;;;;;;12.40;10.50;;;;;;;;;;5000698;28;20468;-92
2021/05/28 20:06:35;;;;;;;12.30;9.83;;;;;;;;;;5013556;28;20448;-92
2021/05/28 20:09:01;;;;;;;11.93;10.70;;;;;;;;;;5009421;28;20454;-90
2021/05/28 20:11:35;;;;;;;14.23;10.53;;;;;;;;;;5006710;28;20457;-94
2021/05/28 20:16:49;;;;;;;13.90;12.60;;;;;;;;;;5000019;28;20541;-94
2021/05/28 20:19:24;;;;;;;12.53;11.30;;;;;;;;;;5009989;28;20464;-95
2021/05/28 20:21:50;;;;;;;14.87;11.20;;;;;;;;;;5002224;28;20462;-89
2021/05/28 20:24:16;;;;;;;12.57;11.27;;;;;;;;;;5014232;28;20816;-92
2021/05/28 20:26:42;;;;;;;13.33;11.37;;;;;;;;;;5016192;28;20457;-95
2021/05/28 20:29:09;;;;;;;14.70;11.90;;;;;;;;;;5005736;28;20432;-94
2021/05/28 20:31:36;;;;;;;13.90;12.50;;;;;;;;;;5008360;28;20456;-93
2021/05/28 20:34:03;;;;;;;12.73;11.43;;;;;;;;;;5007932;28;20496;-89
2021/05/28 20:36:30;;;;;;;13.10;11.80;;;;;;;;;;5033056;23;20534;-93
2021/05/28 20:39:00;;;;;;;12.60;11.40;;;;;;;;;;5039198;28;20446;-95